Time;durP1;ratioP1;P1;durP2;ratioP2;P2;SDS_P1;SDS_P2;PMS_P1;PMS_P2;Temp;Humidity;BMP_temperature;BMP_pressure;BME280_temperature;BME280_humidity;BME280_pressure;Samples;Min_cycle;Max_cycle;Signal;HPM_P1;HPM_P2
2021/12/22 00:01:59;;;;;;;36.67;13.27;;;-1.70;99.90;;;;;;4987696;28;19926;-75
2021/12/22 00:04:26;;;;;;;40.92;14.15;;;-1.70;99.90;;;;;;4986441;28;20085;-75
2021/12/22 00:06:54;;;;;;;;;;;-1.80;99.90;;;;;;4987092;28;20050;-75
2021/12/22 00:09:22;;;;;;;31.73;12.80;;;-1.80;99.90;;;;;;4987113;28;19949;-75
2021/12/22 00:11:50;;;;;;;38.17;14.32;;;-1.80;99.90;;;;;;4987929;28;20050;-75
2021/12/22 00:14:17;;;;;;;34.72;15.68;;;-1.80;99.90;;;;;;4986499;28;20054;-74
2021/12/22 00:16:45;;;;;;;36.38;16.27;;;-1.80;99.90;;;;;;5002410;28;20046;-75
2021/12/22 00:19:13;;;;;;;44.47;16.95;;;-1.90;99.90;;;;;;4969708;28;20057;-74
2021/12/22 00:21:40;;;;;;;40.35;17.42;;;-1.90;99.90;;;;;;4985509;28;20058;-76
2021/12/22 00:24:08;;;;;;;40.90;17.67;;;-1.90;99.90;;;;;;4969649;28;20050;-75
2021/12/22 00:26:36;;;;;;;47.60;18.75;;;-1.90;99.90;;;;;;4987110;28;20056;-77
2021/12/22 00:29:05;;;;;;;43.30;19.50;;;-1.90;99.90;;;;;;4987216;28;20407;-77
2021/12/22 00:31:40;;;;;;;60.83;21.50;;;-1.90;99.90;;;;;;5000690;28;20402;-76
2021/12/22 00:34:16;;;;;;;52.78;19.30;;;-1.80;99.90;;;;;;4986126;28;20061;-77
2021/12/22 00:36:45;;;;;;;53.70;20.58;;;-1.90;99.90;;;;;;4984982;28;20038;-76
2021/12/22 00:39:12;;;;;;;47.70;19.52;;;-1.90;99.90;;;;;;4986689;28;20054;-76
2021/12/22 00:41:40;;;;;;;49.47;20.35;;;-1.90;99.90;;;;;;4986940;28;20046;-76
2021/12/22 00:44:09;;;;;;;44.55;19.25;;;-1.90;99.90;;;;;;4986605;28;20486;-75
2021/12/22 00:46:37;;;;;;;54.05;20.15;;;-1.90;99.90;;;;;;4986611;28;20058;-77
2021/12/22 00:49:05;;;;;;;46.47;19.05;;;-1.90;99.90;;;;;;5001779;28;20039;-77
2021/12/22 00:51:32;;;;;;;47.53;19.77;;;-1.90;99.90;;;;;;5001204;28;20050;-74
2021/12/22 00:54:01;;;;;;;49.72;18.60;;;-2.00;99.90;;;;;;5017387;28;20042;-75
2021/12/22 00:56:30;;;;;;;55.40;20.13;;;-2.00;99.90;;;;;;4986732;28;20062;-75
2021/12/22 00:58:57;;;;;;;;;;;-2.00;99.90;;;;;;5017678;28;20038;-76
2021/12/22 01:01:25;;;;;;;48.03;19.15;;;-2.00;99.90;;;;;;5017352;28;19933;-75
2021/12/22 01:03:52;;;;;;;51.40;20.40;;;-2.00;99.90;;;;;;5018321;28;20058;-75
2021/12/22 01:06:20;;;;;;;53.10;19.83;;;-2.00;99.90;;;;;;5001483;28;20050;-75
2021/12/22 01:08:48;;;;;;;46.60;19.50;;;-2.00;99.90;;;;;;4986892;28;20058;-74
2021/12/22 01:11:16;;;;;;;50.85;21.70;;;-2.00;99.90;;;;;;4984370;28;20142;-75
2021/12/22 01:13:44;;;;;;;58.28;20.50;;;-2.00;99.90;;;;;;5001667;28;20069;-74
2021/12/22 01:16:12;;;;;;;49.88;20.33;;;-2.00;99.90;;;;;;4986618;28;20063;-74
2021/12/22 01:18:39;;;;;;;48.40;19.17;;;-2.00;99.90;;;;;;5018179;28;20082;-74
2021/12/22 01:21:24;;;;;;;46.63;18.70;;;-2.00;99.90;;;;;;4986111;28;20046;-74
2021/12/22 01:27:05;;;;;;;50.38;18.85;;;-2.00;99.90;;;;;;4967262;28;20046;-74
2021/12/22 01:29:34;;;;;;;48.45;19.45;;;-2.00;99.90;;;;;;4969543;28;20499;-75
2021/12/22 01:32:02;;;;;;;52.05;19.50;;;-2.00;99.90;;;;;;4993420;28;20058;-74
2021/12/22 01:34:30;;;;;;;47.22;18.42;;;-2.00;99.90;;;;;;4985363;28;20669;-74
2021/12/22 01:36:58;;;;;;;;;;;-2.00;99.90;;;;;;5001741;28;20418;-74
2021/12/22 01:39:25;;;;;;;44.08;18.02;;;-2.00;99.90;;;;;;5001502;28;19925;-76
2021/12/22 01:41:54;;;;;;;45.42;18.42;;;-2.00;99.90;;;;;;5001868;28;20069;-76
2021/12/22 01:44:32;;;;;;;46.10;18.13;;;-2.10;99.90;;;;;;5001215;28;20050;-75
2021/12/22 01:49:53;;;;;;;47.05;16.73;;;-2.10;99.90;;;;;;4985208;28;20054;-73
2021/12/22 01:52:22;;;;;;;46.42;18.13;;;-2.10;99.90;;;;;;4984414;28;20073;-76
2021/12/22 01:55:13;;;;;;;45.67;18.17;;;-2.10;99.90;;;;;;4986307;28;20046;-74
2021/12/22 01:57:49;;;;;;;42.22;16.52;;;-2.20;99.90;;;;;;5001071;28;20054;-74
2021/12/22 02:00:20;;;;;;;44.25;17.95;;;-2.20;99.90;;;;;;4984289;28;20062;-74
2021/12/22 02:02:49;;;;;;;45.42;18.42;;;-2.20;99.90;;;;;;4986371;28;20058;-73
2021/12/22 02:05:18;;;;;;;42.55;17.60;;;-2.20;99.90;;;;;;5001138;28;20064;-74
2021/12/22 02:07:48;;;;;;;48.08;18.15;;;-2.30;99.90;;;;;;4984051;28;20380;-74
2021/12/22 02:12:48;;;;;;;57.58;19.00;;;-2.30;99.90;;;;;;4987879;28;20054;-74
2021/12/22 02:15:16;;;;;;;43.15;18.45;;;-2.40;99.90;;;;;;5020968;28;20043;-74
2021/12/22 02:17:44;;;;;;;50.40;18.90;;;-2.40;99.90;;;;;;4989610;28;20046;-75
2021/12/22 02:20:12;;;;;;;50.08;19.65;;;-2.40;99.90;;;;;;4988590;28;20046;-74
2021/12/22 02:22:42;;;;;;;48.45;18.30;;;-2.40;99.90;;;;;;4989337;28;20046;-75
2021/12/22 02:25:18;;;;;;;46.25;18.38;;;-2.40;99.90;;;;;;4989342;28;20655;-75
2021/12/22 02:27:51;;;;;;;45.22;18.30;;;-2.40;99.90;;;;;;4989110;28;20046;-75
2021/12/22 02:30:28;;;;;;;44.25;17.45;;;-2.50;99.90;;;;;;5004474;28;20404;-76
2021/12/22 02:33:10;;;;;;;50.28;17.98;;;-2.50;99.90;;;;;;5004373;28;20069;-76
2021/12/22 02:35:41;;;;;;;44.30;18.25;;;-2.50;99.90;;;;;;5004110;28;20054;-74
2021/12/22 02:38:16;;;;;;;38.80;17.50;;;-2.50;99.90;;;;;;4987965;28;20050;-75
2021/12/22 02:40:47;;;;;;;49.67;18.23;;;-2.50;99.90;;;;;;5003935;28;20403;-75
2021/12/22 02:43:21;;;;;;;40.35;14.50;;;-2.60;99.90;;;;;;4988194;28;20727;-76
2021/12/22 02:45:51;;;;;;;49.60;18.02;;;-2.50;99.90;;;;;;4988892;28;20082;-75
2021/12/22 02:48:19;;;;;;;47.35;18.52;;;-2.60;99.90;;;;;;4989610;28;20509;-77
2021/12/22 02:50:46;;;;;;;52.08;18.73;;;-2.60;99.90;;;;;;5020884;28;20046;-76
2021/12/22 02:53:15;;;;;;;50.72;18.67;;;-2.60;99.90;;;;;;4987643;28;20046;-75
2021/12/22 02:55:52;;;;;;;46.92;18.20;;;-2.60;99.90;;;;;;4987910;28;20519;-75
2021/12/22 03:03:44;;;;;;;50.55;19.08;;;-2.70;99.90;;;;;;4989387;28;20054;-76
2021/12/22 03:06:16;;;;;;;50.88;18.70;;;-2.70;99.90;;;;;;5004412;28;20050;-73
2021/12/22 03:08:44;;;;;;;45.10;18.75;;;-2.70;99.90;;;;;;5004001;28;20054;-73
2021/12/22 03:11:12;;;;;;;58.35;21.15;;;-2.70;99.90;;;;;;4989293;28;20495;-75
2021/12/22 03:13:40;;;;;;;52.33;19.73;;;-2.70;99.90;;;;;;4989030;28;20038;-74
2021/12/22 03:16:07;;;;;;;48.00;18.85;;;-2.80;99.90;;;;;;4988794;28;20051;-76
2021/12/22 03:18:36;;;;;;;49.70;19.63;;;-2.70;99.90;;;;;;4987685;28;20058;-77
2021/12/22 03:21:25;;;;;;;44.20;18.70;;;-2.80;99.90;;;;;;4987905;28;20053;-75
2021/12/22 03:23:53;;;;;;;58.40;19.42;;;-2.80;99.90;;;;;;4988991;28;20064;-76
2021/12/22 03:26:23;;;;;;;55.95;19.23;;;-2.80;99.90;;;;;;4988477;28;20518;-75
2021/12/22 03:28:51;;;;;;;49.70;19.38;;;-2.80;99.90;;;;;;4986663;28;20061;-76
2021/12/22 03:31:18;;;;;;;49.92;18.58;;;-2.70;99.90;;;;;;4988859;28;20047;-75
2021/12/22 03:33:46;;;;;;;50.05;18.50;;;-2.80;99.90;;;;;;4988621;28;20467;-76
2021/12/22 03:36:14;;;;;;;52.65;19.33;;;-2.80;99.90;;;;;;4988639;28;20050;-75
2021/12/22 03:38:43;;;;;;;54.97;18.90;;;-2.80;99.90;;;;;;5003226;28;20046;-76
2021/12/22 03:41:10;;;;;;;48.90;17.95;;;-2.80;99.90;;;;;;4987161;28;20053;-75
2021/12/22 03:43:38;;;;;;;49.63;18.50;;;-2.80;99.90;;;;;;4988195;28;20513;-76
2021/12/22 03:46:06;;;;;;;46.70;17.70;;;-2.80;99.90;;;;;;5003418;28;20054;-74
2021/12/22 03:48:34;;;;;;;48.40;17.80;;;-2.80;99.90;;;;;;4988585;28;20050;-75
2021/12/22 03:51:03;;;;;;;42.83;18.13;;;-2.80;99.90;;;;;;5003403;28;20046;-76
2021/12/22 03:53:31;;;;;;;52.13;18.23;;;-2.70;99.90;;;;;;4988299;28;20479;-75
2021/12/22 03:55:58;;;;;;;49.75;18.50;;;-2.70;99.90;;;;;;4970707;28;20050;-74
2021/12/22 03:58:26;;;;;;;45.58;17.85;;;-2.70;99.90;;;;;;5003411;28;20459;-76
2021/12/22 04:00:56;;;;;;;48.92;16.60;;;-2.70;99.90;;;;;;4986770;28;20057;-76
2021/12/22 04:03:28;;;;;;;45.83;16.55;;;-2.70;99.90;;;;;;4988070;28;20058;-75
2021/12/22 04:05:56;;;;;;;48.97;17.63;;;-2.70;99.90;;;;;;4988422;28;20057;-76
2021/12/22 04:08:24;;;;;;;46.80;17.02;;;-2.60;99.90;;;;;;4987773;28;20502;-76
2021/12/22 04:10:52;;;;;;;46.85;17.63;;;-2.60;99.90;;;;;;5003148;28;20053;-74
2021/12/22 04:13:20;;;;;;;44.95;17.45;;;-2.60;99.90;;;;;;4987858;28;20395;-75
2021/12/22 04:15:48;;;;;;;41.78;17.23;;;-2.60;99.90;;;;;;4987907;28;20057;-75
2021/12/22 04:18:17;;;;;;;43.28;16.90;;;-2.60;99.90;;;;;;4988018;28;20054;-77
2021/12/22 04:20:45;;;;;;;47.92;17.13;;;-2.60;99.90;;;;;;4986835;28;20053;-77
2021/12/22 04:23:13;;;;;;;43.47;17.15;;;-2.60;99.90;;;;;;4985667;28;20042;-76
2021/12/22 04:25:41;;;;;;;46.78;16.35;;;-2.60;99.90;;;;;;5002507;28;20067;-76
2021/12/22 04:28:10;;;;;;;45.53;16.25;;;-2.60;99.90;;;;;;4970426;28;20046;-75
2021/12/22 04:30:40;;;;;;;41.25;16.08;;;-2.60;99.90;;;;;;5002337;28;20058;-76
2021/12/22 04:33:08;;;;;;;49.38;16.60;;;-2.60;99.90;;;;;;4987211;28;20061;-76
2021/12/22 04:35:36;;;;;;;46.83;16.58;;;-2.60;99.90;;;;;;4987468;28;20382;-74
2021/12/22 04:38:04;;;;;;;43.25;17.58;;;-2.60;99.90;;;;;;4987955;28;20053;-74
2021/12/22 04:40:32;;;;;;;41.60;16.58;;;-2.70;99.90;;;;;;4982155;28;20447;-74
2021/12/22 04:43:00;;;;;;;42.72;16.40;;;-2.60;99.90;;;;;;5018885;28;20058;-75
2021/12/22 04:45:28;;;;;;;;;;;-2.70;99.90;;;;;;4987599;28;20066;-76
2021/12/22 04:47:57;;;;;;;;;;;-2.70;99.90;;;;;;4988225;28;19926;-77
2021/12/22 04:50:25;;;;;;;42.22;15.85;;;-2.70;99.90;;;;;;4986599;28;20334;-76
2021/12/22 04:55:32;;;;;;;42.55;16.35;;;-2.80;99.90;;;;;;4987073;28;20054;-76
2021/12/22 04:58:00;;;;;;;42.13;15.60;;;-2.80;99.90;;;;;;4984904;28;20050;-76
2021/12/22 05:00:30;;;;;;;42.35;17.08;;;-2.80;99.90;;;;;;4985314;28;20054;-77
2021/12/22 05:02:59;;;;;;;39.88;15.93;;;-2.80;99.90;;;;;;4987232;28;20388;-77
2021/12/22 05:05:28;;;;;;;46.17;16.92;;;-2.80;99.90;;;;;;4985752;28;20078;-77
2021/12/22 05:07:56;;;;;;;40.08;15.65;;;-2.90;99.90;;;;;;4985879;28;20061;-76
2021/12/22 05:10:25;;;;;;;38.83;16.25;;;-2.90;99.90;;;;;;4969261;28;20165;-77
2021/12/22 05:12:53;;;;;;;52.03;17.40;;;-2.90;99.90;;;;;;4986870;28;20410;-76
2021/12/22 05:15:23;;;;;;;;;;;-2.90;99.90;;;;;;5002618;28;20047;-76
2021/12/22 05:20:23;;;;;;;45.47;15.68;;;-2.90;99.90;;;;;;4987060;28;20053;-78
2021/12/22 05:22:52;;;;;;;45.30;14.85;;;-2.90;99.90;;;;;;4986675;28;20057;-78
2021/12/22 05:25:19;;;;;;;43.33;15.15;;;-2.90;99.90;;;;;;4985626;28;20046;-76
2021/12/22 05:27:47;;;;;;;45.97;15.63;;;-2.90;99.90;;;;;;4987363;28;20054;-77
2021/12/22 05:30:15;;;;;;;44.08;15.18;;;-2.90;99.90;;;;;;4987376;28;20061;-77
2021/12/22 05:32:43;;;;;;;41.47;16.05;;;-2.90;99.90;;;;;;4987122;28;20083;-77
2021/12/22 05:35:11;;;;;;;44.10;16.65;;;-2.90;99.90;;;;;;4987044;28;20414;-77
2021/12/22 05:37:40;;;;;;;39.67;15.75;;;-2.90;99.90;;;;;;4985615;28;20419;-75
2021/12/22 05:40:09;;;;;;;48.67;17.52;;;-2.90;99.90;;;;;;4985659;28;20061;-76
2021/12/22 05:42:37;;;;;;;45.10;16.00;;;-2.90;99.90;;;;;;5018110;28;20049;-76
2021/12/22 05:45:06;;;;;;;56.45;18.73;;;-2.90;99.90;;;;;;4989461;28;20415;-75
2021/12/22 05:47:34;;;;;;;44.88;17.13;;;-2.90;99.90;;;;;;4989252;28;20049;-77
2021/12/22 05:50:04;;;;;;;;;;;-2.90;99.90;;;;;;4989418;28;20105;-76
2021/12/22 05:52:31;;;;;;;44.20;16.23;;;-3.00;99.90;;;;;;4989416;28;19921;-77
2021/12/22 05:54:59;;;;;;;;;;;-2.90;99.90;;;;;;5022040;28;20584;-75
2021/12/22 05:57:27;;;;;;;52.00;15.93;;;-2.90;99.90;;;;;;4990102;28;19926;-76
2021/12/22 05:59:54;;;;;;;54.40;17.52;;;-2.90;99.90;;;;;;5004789;28;20046;-77
2021/12/22 06:02:22;;;;;;;49.00;18.27;;;-2.90;99.90;;;;;;4988842;28;20065;-75
2021/12/22 06:04:50;;;;;;;;;;;-2.90;99.90;;;;;;4989054;28;20058;-75
2021/12/22 06:07:17;;;;;;;47.53;15.98;;;-2.90;99.90;;;;;;5021353;28;20386;-77
2021/12/22 06:09:45;;;;;;;46.92;16.80;;;-2.90;99.90;;;;;;4989892;28;20178;-77
2021/12/22 06:12:13;;;;;;;49.53;16.65;;;-2.80;99.90;;;;;;4988755;28;20098;-74
2021/12/22 06:14:41;;;;;;;52.08;16.33;;;-2.80;99.90;;;;;;4988664;28;20050;-75
2021/12/22 06:17:08;;;;;;;53.88;17.42;;;-2.80;99.90;;;;;;4989686;28;20042;-75
2021/12/22 06:19:36;;;;;;;48.63;16.80;;;-2.80;99.90;;;;;;4990058;28;20057;-75
2021/12/22 06:22:04;;;;;;;45.90;16.75;;;-2.70;99.90;;;;;;4989931;28;20042;-75
2021/12/22 06:24:31;;;;;;;54.83;17.88;;;-2.80;99.90;;;;;;4971677;28;20058;-76
2021/12/22 06:26:59;;;;;;;48.05;16.13;;;-2.70;99.90;;;;;;5003987;28;20055;-77
2021/12/22 06:29:27;;;;;;;46.75;15.98;;;-2.70;99.90;;;;;;4989489;28;20050;-76
2021/12/22 06:31:54;;;;;;;43.47;14.20;;;-2.70;99.90;;;;;;4988117;28;20038;-76
2021/12/22 06:34:22;;;;;;;56.25;17.45;;;-2.70;99.90;;;;;;4989339;28;20736;-77
2021/12/22 06:36:50;;;;;;;53.92;16.75;;;-2.70;99.90;;;;;;4988410;28;20058;-75
2021/12/22 06:39:18;;;;;;;50.58;16.48;;;-2.70;99.90;;;;;;5003734;28;20050;-75
2021/12/22 06:41:47;;;;;;;47.17;15.90;;;-2.70;99.90;;;;;;5004214;28;20050;-77
2021/12/22 06:44:15;;;;;;;54.22;16.30;;;-2.70;99.90;;;;;;5003953;28;20054;-77
2021/12/22 06:46:43;;;;;;;51.83;16.38;;;-2.70;99.90;;;;;;5004004;28;20065;-77
2021/12/22 06:49:11;;;;;;;41.08;16.50;;;-2.70;99.90;;;;;;5004099;28;20334;-76
2021/12/22 06:51:40;;;;;;;56.80;18.10;;;-2.60;99.90;;;;;;4955674;28;20061;-77
2021/12/22 06:54:08;;;;;;;50.28;16.90;;;-2.60;99.90;;;;;;4988740;28;20041;-75
2021/12/22 06:56:38;;;;;;;50.83;16.65;;;-2.60;99.90;;;;;;4988268;28;20054;-77
2021/12/22 06:59:05;;;;;;;52.75;16.48;;;-2.60;99.90;;;;;;4987961;28;20050;-76
2021/12/22 07:01:35;;;;;;;52.70;17.38;;;-2.60;99.90;;;;;;5020660;28;20061;-76
2021/12/22 07:04:03;;;;;;;61.88;17.90;;;-2.60;99.90;;;;;;4971090;28;20050;-77
2021/12/22 07:06:32;;;;;;;52.90;17.92;;;-2.50;99.90;;;;;;4970974;28;20097;-77
2021/12/22 07:09:00;;;;;;;61.20;17.83;;;-2.50;99.90;;;;;;4970821;28;20053;-76
2021/12/22 07:11:27;;;;;;;;;;;-2.50;99.90;;;;;;4987595;28;20089;-77
2021/12/22 07:13:55;;;;;;;43.28;15.50;;;-2.40;99.90;;;;;;4987377;28;19929;-76
2021/12/22 07:16:23;;;;;;;47.55;16.17;;;-2.40;99.90;;;;;;4987302;28;20042;-77
2021/12/22 07:18:53;;;;;;;52.83;16.13;;;-2.40;99.90;;;;;;4987435;28;20054;-77
2021/12/22 07:21:20;;;;;;;53.55;17.48;;;-2.40;99.90;;;;;;5020083;28;20061;-77
2021/12/22 07:23:48;;;;;;;54.85;19.15;;;-2.40;99.90;;;;;;4987320;28;20050;-76
2021/12/22 07:26:16;;;;;;;64.75;19.00;;;-2.30;99.90;;;;;;4987485;28;20050;-75
2021/12/22 07:28:46;;;;;;;50.67;16.65;;;-2.30;99.90;;;;;;4986996;28;20050;-76
2021/12/22 07:31:15;;;;;;;59.22;18.77;;;-2.40;99.90;;;;;;4988414;28;20108;-75
2021/12/22 07:34:00;;;;;;;56.85;18.35;;;-2.30;99.90;;;;;;4988306;28;20053;-75
2021/12/22 07:36:28;;;;;;;57.35;19.17;;;-2.30;99.90;;;;;;4988607;28;20047;-78
2021/12/22 07:38:57;;;;;;;63.38;19.35;;;-2.30;99.90;;;;;;4988041;28;20054;-77
2021/12/22 07:41:26;;;;;;;63.92;20.13;;;-2.30;99.90;;;;;;4986745;28;20054;-77
2021/12/22 07:43:54;;;;;;;72.38;23.83;;;-2.30;99.90;;;;;;4986622;28;20061;-76
2021/12/22 07:46:22;;;;;;;57.25;20.08;;;-2.30;99.90;;;;;;4986681;28;20053;-75
2021/12/22 07:48:50;;;;;;;67.70;20.15;;;-2.20;99.90;;;;;;4985785;28;20498;-77
2021/12/22 07:51:18;;;;;;;55.15;19.40;;;-2.20;99.90;;;;;;4986142;28;20512;-76
2021/12/22 07:53:46;;;;;;;60.55;20.48;;;-2.20;99.90;;;;;;4986440;28;20046;-74
2021/12/22 07:56:15;;;;;;;57.17;19.98;;;-2.20;99.90;;;;;;4986564;28;20377;-75
2021/12/22 07:58:43;;;;;;;58.08;21.63;;;-2.20;99.90;;;;;;4986375;28;20051;-76
2021/12/22 08:01:10;;;;;;;61.00;20.60;;;-2.20;99.90;;;;;;4986170;28;20050;-75
2021/12/22 08:03:38;;;;;;;;;;;-2.20;99.90;;;;;;4986775;28;20057;-76
2021/12/22 08:06:13;;;;;;;56.80;19.63;;;-2.20;99.90;;;;;;4987240;28;19921;-77
2021/12/22 08:08:41;;;;;;;60.83;23.05;;;-2.20;99.90;;;;;;4991230;28;20042;-76
2021/12/22 08:11:08;;;;;;;;;;;-2.20;99.90;;;;;;4991697;28;20050;-73
2021/12/22 08:13:36;;;;;;;66.60;21.48;;;-2.20;99.90;;;;;;4987181;28;19933;-77
2021/12/22 08:16:05;;;;;;;72.07;22.42;;;-2.20;99.90;;;;;;4986800;28;20034;-75
2021/12/22 08:18:33;;;;;;;76.22;23.45;;;-2.10;99.90;;;;;;5001202;28;20050;-79
2021/12/22 08:21:02;;;;;;;61.22;22.50;;;-2.10;99.90;;;;;;5001400;28;20049;-77
2021/12/22 08:23:34;;;;;;;72.63;24.23;;;-2.00;99.90;;;;;;4977795;28;20519;-77
2021/12/22 08:26:01;;;;;;;81.88;24.98;;;-2.00;99.90;;;;;;4978325;28;20073;-78
2021/12/22 08:28:30;;;;;;;90.82;28.33;;;-1.90;99.90;;;;;;4973751;28;20054;-77
2021/12/22 08:30:57;;;;;;;;;;;-1.80;99.90;;;;;;4971611;28;20046;-75
2021/12/22 08:33:29;;;;;;;85.30;27.70;;;-1.70;99.90;;;;;;4981210;28;19926;-76
2021/12/22 08:38:53;;;;;;;88.00;27.67;;;-1.50;99.90;;;;;;4984125;28;20046;-76
2021/12/22 08:41:23;;;;;;;76.55;27.10;;;-1.40;99.90;;;;;;4985051;28;20058;-75
2021/12/22 08:43:53;;;;;;;92.60;29.80;;;-1.30;99.90;;;;;;4984677;28;20072;-74
2021/12/22 08:46:22;;;;;;;88.85;29.20;;;-1.10;99.90;;;;;;4985538;28;20077;-74
2021/12/22 08:48:51;;;;;;;91.63;30.40;;;-1.00;99.90;;;;;;4983610;28;20042;-74
2021/12/22 08:51:19;;;;;;;95.10;32.15;;;-0.80;99.90;;;;;;4981927;28;20491;-74
2021/12/22 08:53:46;;;;;;;91.60;30.13;;;-0.60;99.90;;;;;;4983317;28;20042;-73
2021/12/22 08:56:14;;;;;;;97.68;30.38;;;-0.50;99.90;;;;;;4985857;28;20096;-74
2021/12/22 08:58:42;;;;;;;77.72;29.17;;;-0.40;99.90;;;;;;5017509;28;20134;-75
2021/12/22 09:01:10;;;;;;;82.57;29.75;;;-0.20;99.90;;;;;;4990225;28;20058;-74
2021/12/22 09:03:38;;;;;;;76.78;28.42;;;-0.20;99.90;;;;;;4984039;28;20045;-74
2021/12/22 09:06:06;;;;;;;79.07;27.17;;;0.00;99.90;;;;;;4984529;28;20046;-74
2021/12/22 09:08:34;;;;;;;80.55;26.45;;;0.30;99.90;;;;;;5016599;28;20057;-73
2021/12/22 09:11:02;;;;;;;68.35;25.45;;;0.40;99.90;;;;;;5016865;28;20050;-73
2021/12/22 09:13:38;;;;;;;60.08;22.30;;;0.50;99.90;;;;;;5008601;28;20069;-75
2021/12/22 09:16:09;;;;;;;61.00;21.00;;;0.70;99.90;;;;;;4984060;28;20042;-73
2021/12/22 09:18:38;;;;;;;52.25;19.88;;;0.80;99.90;;;;;;5011740;28;20065;-74
2021/12/22 09:21:07;;;;;;;44.95;17.33;;;1.00;99.90;;;;;;4969143;28;20361;-74
2021/12/22 09:23:35;;;;;;;40.45;17.45;;;1.10;99.90;;;;;;4986282;28;20049;-73
2021/12/22 09:26:05;;;;;;;38.28;16.52;;;1.20;99.90;;;;;;4984372;28;20113;-74
2021/12/22 09:28:33;;;;;;;40.58;15.63;;;1.30;99.90;;;;;;4984829;28;20050;-73
2021/12/22 09:31:01;;;;;;;33.00;14.45;;;1.50;99.90;;;;;;4999890;28;20054;-73
2021/12/22 09:33:29;;;;;;;32.03;13.98;;;1.60;99.90;;;;;;5000626;28;20069;-73
2021/12/22 09:35:57;;;;;;;33.17;13.30;;;1.70;99.90;;;;;;5002446;28;20061;-73
2021/12/22 09:38:24;;;;;;;32.38;12.95;;;1.80;99.90;;;;;;4978488;28;20046;-72
2021/12/22 09:40:57;;;;;;;34.33;13.85;;;1.90;99.90;;;;;;4986366;28;20058;-74
2021/12/22 09:43:24;;;;;;;29.30;12.50;;;2.10;99.90;;;;;;5017918;28;20051;-73
2021/12/22 09:45:58;;;;;;;33.63;13.45;;;2.20;99.90;;;;;;4986535;28;20050;-73
2021/12/22 09:53:30;;;;;;;28.48;11.68;;;2.40;99.90;;;;;;4985012;28;20058;-73
2021/12/22 09:55:58;;;;;;;28.92;12.05;;;2.50;99.90;;;;;;4985707;28;20487;-73
2021/12/22 09:58:27;;;;;;;27.65;12.52;;;2.60;99.90;;;;;;4986150;28;20050;-72
2021/12/22 10:00:57;;;;;;;26.92;12.00;;;2.80;99.90;;;;;;5001455;28;20053;-71
2021/12/22 10:03:25;;;;;;;33.38;12.43;;;2.90;99.90;;;;;;5000942;28;20050;-73
2021/12/22 10:05:54;;;;;;;30.77;11.98;;;3.00;99.90;;;;;;4986087;28;20046;-72
2021/12/22 10:08:24;;;;;;;30.42;11.52;;;3.20;99.90;;;;;;4984869;28;20558;-73
2021/12/22 10:11:11;;;;;;;28.17;11.27;;;3.30;99.90;;;;;;4985704;28;20051;-72
2021/12/22 10:13:44;;;;;;;28.70;11.40;;;3.50;99.90;;;;;;4986032;28;20418;-72
2021/12/22 10:16:20;;;;;;;23.42;11.50;;;3.70;99.90;;;;;;4985746;28;20073;-72
2021/12/22 10:19:01;;;;;;;22.20;9.55;;;3.90;99.90;;;;;;4985775;28;20415;-73
2021/12/22 10:21:29;;;;;;;21.83;9.32;;;4.10;99.90;;;;;;4985713;28;20146;-73
2021/12/22 10:23:56;;;;;;;16.50;9.02;;;4.30;99.90;;;;;;4985865;28;20187;-73
2021/12/22 10:26:27;;;;;;;18.35;8.80;;;4.60;99.90;;;;;;4985936;28;20053;-73
2021/12/22 10:28:59;;;;;;;22.80;8.93;;;4.80;99.90;;;;;;4986377;28;20046;-72
2021/12/22 10:31:40;;;;;;;20.60;9.07;;;5.00;99.90;;;;;;4988017;28;20057;-73
2021/12/22 10:34:11;;;;;;;20.77;9.13;;;5.20;99.90;;;;;;4988632;28;20491;-72
2021/12/22 10:36:48;;;;;;;22.88;9.80;;;5.20;99.90;;;;;;4989389;28;20513;-72
2021/12/22 10:39:19;;;;;;;25.10;9.82;;;5.20;99.90;;;;;;5003213;28;20057;-72
2021/12/22 10:41:47;;;;;;;21.98;9.10;;;5.40;99.90;;;;;;4988029;28;20058;-72
2021/12/22 10:44:19;;;;;;;22.55;9.40;;;5.40;99.90;;;;;;4986828;28;20058;-74
2021/12/22 10:46:47;;;;;;;22.70;9.35;;;5.40;99.90;;;;;;5003450;28;20062;-72
2021/12/22 10:49:20;;;;;;;24.70;9.65;;;5.40;99.90;;;;;;4989076;28;20047;-71
2021/12/22 10:52:00;;;;;;;20.45;9.68;;;5.40;99.90;;;;;;4987846;28;20447;-72
2021/12/22 10:54:34;;;;;;;25.67;9.77;;;5.40;99.90;;;;;;4986978;28;20046;-73
2021/12/22 10:57:09;;;;;;;22.50;8.80;;;5.30;99.90;;;;;;4970748;28;20050;-72
2021/12/22 10:59:47;;;;;;;22.98;9.57;;;5.30;99.90;;;;;;4987618;28;20065;-72
2021/12/22 11:02:26;;;;;;;20.98;10.48;;;5.20;99.90;;;;;;4987503;28;20061;-72
2021/12/22 11:04:55;;;;;;;21.90;9.43;;;5.20;99.90;;;;;;4971256;28;20062;-72
2021/12/22 11:07:28;;;;;;;19.33;10.18;;;5.10;99.90;;;;;;4987354;28;20062;-72
2021/12/22 11:09:56;;;;;;;23.60;9.75;;;5.00;99.90;;;;;;4987325;28;20069;-72
2021/12/22 11:12:37;;;;;;;20.05;9.18;;;4.90;99.90;;;;;;4988385;28;20506;-72
2021/12/22 11:15:22;;;;;;;20.90;9.32;;;4.80;99.90;;;;;;4986208;28;20050;-72
2021/12/22 11:17:50;;;;;;;22.20;9.55;;;4.80;99.90;;;;;;4987591;28;20073;-72
2021/12/22 11:20:22;;;;;;;24.48;9.18;;;4.80;99.90;;;;;;4983569;28;20046;-72
2021/12/22 11:22:58;;;;;;;22.70;9.57;;;4.80;99.90;;;;;;5016480;28;20050;-72
2021/12/22 11:25:28;;;;;;;23.42;10.07;;;4.70;99.90;;;;;;4987492;28;20053;-72
2021/12/22 11:27:58;;;;;;;22.45;10.45;;;4.80;99.90;;;;;;4987139;28;20419;-71
2021/12/22 11:30:27;;;;;;;23.30;8.90;;;4.70;99.90;;;;;;5001676;28;20061;-73
2021/12/22 11:32:56;;;;;;;23.00;10.32;;;4.70;99.90;;;;;;4985172;28;20058;-72
2021/12/22 11:35:24;;;;;;;24.73;10.88;;;4.70;99.90;;;;;;5018571;28;20038;-72
2021/12/22 11:37:52;;;;;;;27.45;10.40;;;4.80;99.90;;;;;;4987615;28;20065;-74
2021/12/22 11:40:22;;;;;;;20.90;9.77;;;4.80;99.90;;;;;;5018424;28;20069;-74
2021/12/22 11:42:50;;;;;;;25.83;9.27;;;4.90;99.90;;;;;;4986241;28;20418;-72
2021/12/22 11:45:22;;;;;;;20.58;10.00;;;5.00;99.90;;;;;;5013711;28;20065;-72
2021/12/22 11:47:56;;;;;;;20.23;9.23;;;4.90;99.90;;;;;;4985930;28;20050;-73
2021/12/22 11:50:29;;;;;;;19.45;9.00;;;4.90;99.90;;;;;;4986345;28;20575;-72
2021/12/22 11:53:08;;;;;;;22.33;10.38;;;4.90;99.90;;;;;;5016404;28;20438;-73
2021/12/22 11:55:49;;;;;;;20.10;9.45;;;4.90;99.90;;;;;;4986890;28;20042;-73
2021/12/22 11:58:20;;;;;;;24.95;10.95;;;4.90;99.90;;;;;;4986888;28;20057;-73
2021/12/22 12:00:53;;;;;;;21.33;9.65;;;5.10;99.90;;;;;;5017389;28;20053;-72
2021/12/22 12:03:28;;;;;;;20.55;9.43;;;5.10;99.90;;;;;;4989103;28;20073;-73
2021/12/22 12:06:18;;;;;;;18.45;9.07;;;5.10;99.90;;;;;;5004544;28;20567;-73
2021/12/22 12:08:55;;;;;;;28.10;11.27;;;5.20;99.90;;;;;;4986337;28;20057;-74
2021/12/22 12:11:44;;;;;;;24.63;10.52;;;5.20;99.90;;;;;;4986066;28;20050;-74
2021/12/22 12:14:33;;;;;;;29.25;11.43;;;5.20;99.90;;;;;;4987011;28;20066;-73
2021/12/22 12:23:34;;;;;;;27.52;10.93;;;5.30;99.90;;;;;;4986378;28;20065;-72
2021/12/22 12:26:05;;;;;;;26.90;10.63;;;5.40;99.90;;;;;;4992192;28;20856;-73
2021/12/22 12:28:54;;;;;;;25.02;11.57;;;5.40;99.90;;;;;;4983804;28;20065;-74
2021/12/22 12:31:41;;;;;;;28.17;11.82;;;5.40;99.90;;;;;;4982502;28;20066;-73
2021/12/22 12:34:24;;;;;;;30.08;13.90;;;5.40;99.90;;;;;;5013200;28;20053;-73
2021/12/22 12:37:00;;;;;;;25.23;11.85;;;5.40;99.90;;;;;;5017877;28;20054;-73
2021/12/22 12:39:53;;;;;;;25.73;11.77;;;5.30;99.90;;;;;;4982773;28;20042;-73
2021/12/22 12:42:22;;;;;;;32.50;12.63;;;5.30;99.90;;;;;;4982968;28;20058;-73
2021/12/22 12:44:49;;;;;;;24.23;11.10;;;5.30;99.90;;;;;;4984747;28;20057;-73
2021/12/22 12:47:20;;;;;;;23.77;10.48;;;5.30;99.90;;;;;;4983613;28;20050;-74
2021/12/22 12:49:48;;;;;;;24.92;10.57;;;5.30;99.90;;;;;;4986386;28;20042;-73
2021/12/22 12:52:22;;;;;;;23.35;12.00;;;5.20;99.90;;;;;;4986220;28;20058;-73
2021/12/22 12:55:08;;;;;;;24.20;12.00;;;5.20;99.90;;;;;;4985239;28;20077;-73
2021/12/22 12:57:36;;;;;;;34.35;13.63;;;5.20;99.90;;;;;;4984802;28;20054;-73
2021/12/22 13:00:07;;;;;;;25.75;11.40;;;5.30;99.90;;;;;;5015910;28;20479;-73
2021/12/22 13:02:38;;;;;;;24.67;11.85;;;5.30;99.90;;;;;;4984568;28;20058;-72
2021/12/22 13:05:11;;;;;;;29.02;12.57;;;5.40;99.90;;;;;;5016003;28;20058;-73
2021/12/22 13:07:40;;;;;;;34.33;14.13;;;5.30;99.90;;;;;;4999568;28;20045;-73
2021/12/22 13:10:13;;;;;;;23.85;12.13;;;5.30;99.90;;;;;;5015450;28;20482;-73
2021/12/22 13:18:26;;;;;;;26.98;13.00;;;5.10;99.90;;;;;;4985794;28;20091;-73
2021/12/22 13:20:56;;;;;;;32.47;13.70;;;5.10;99.90;;;;;;4984601;28;20046;-73
2021/12/22 13:23:30;;;;;;;35.95;16.02;;;5.00;99.90;;;;;;5009683;28;20069;-72
2021/12/22 13:26:00;;;;;;;41.17;15.20;;;5.00;99.90;;;;;;4978915;28;20054;-73
2021/12/22 13:28:31;;;;;;;27.65;12.65;;;4.90;99.90;;;;;;5004381;28;20061;-73
2021/12/22 13:31:05;;;;;;;62.97;25.50;;;4.90;99.90;;;;;;5010963;28;20038;-72